createdAt,value
2018-07-25T00:00:27.058Z,0.00
2018-07-25T00:01:27.020Z,0.00
2018-07-25T00:02:26.975Z,0.00
2018-07-25T00:03:26.945Z,0.00
2018-07-25T00:04:26.923Z,0.00
2018-07-25T00:05:26.899Z,0.00
2018-07-25T00:06:26.850Z,0.00
2018-07-25T00:07:26.821Z,0.00
2018-07-25T00:08:26.789Z,0.00
2018-07-25T00:09:26.754Z,0.00
2018-07-25T00:10:26.723Z,0.00
2018-07-25T00:11:26.677Z,0.00
2018-07-25T00:12:26.643Z,0.00
2018-07-25T00:13:26.620Z,0.00
2018-07-25T00:14:26.588Z,0.00
2018-07-25T00:15:26.579Z,0.00
2018-07-25T00:16:26.508Z,0.00
2018-07-25T00:17:26.470Z,0.00
2018-07-25T00:18:26.441Z,0.00
2018-07-25T00:19:26.417Z,0.00
2018-07-25T00:20:26.383Z,0.00
2018-07-25T00:21:26.360Z,0.00
2018-07-25T00:22:26.352Z,0.00
2018-07-25T00:23:26.286Z,0.00
2018-07-25T00:24:26.244Z,0.00
2018-07-25T00:25:26.219Z,0.00
2018-07-25T00:26:26.178Z,0.00
2018-07-25T00:27:26.157Z,0.00
2018-07-25T00:28:26.119Z,0.00
2018-07-25T00:29:26.077Z,0.00
2018-07-25T00:30:26.032Z,0.00
2018-07-25T00:31:26.007Z,0.00
2018-07-25T00:32:25.980Z,0.00
2018-07-25T00:33:25.949Z,0.00
2018-07-25T00:34:25.907Z,0.00
2018-07-25T00:35:25.860Z,0.00
2018-07-25T00:36:26.004Z,0.00
2018-07-25T00:37:25.809Z,0.00
2018-07-25T00:38:25.767Z,0.00
2018-07-25T00:39:25.738Z,0.00
2018-07-25T00:40:25.707Z,0.00
2018-07-25T00:41:25.663Z,0.00
2018-07-25T00:42:25.627Z,0.00
2018-07-25T00:43:25.607Z,0.00
2018-07-25T00:44:25.563Z,0.00
2018-07-25T00:45:25.533Z,0.00
2018-07-25T00:46:25.494Z,0.00
2018-07-25T00:47:25.461Z,0.00
2018-07-25T00:48:25.450Z,0.00
2018-07-25T00:49:25.405Z,0.00
2018-07-25T00:50:25.371Z,0.00
2018-07-25T00:51:25.318Z,0.00
2018-07-25T00:52:25.307Z,0.00
2018-07-25T00:53:25.259Z,0.00
2018-07-25T00:54:25.220Z,0.00
2018-07-25T00:55:25.247Z,0.00
2018-07-25T00:56:25.155Z,0.00
2018-07-25T00:57:25.123Z,0.00
2018-07-25T00:58:25.094Z,0.00
2018-07-25T00:59:25.059Z,0.00
2018-07-25T01:00:25.024Z,0.00
2018-07-25T01:01:24.983Z,0.00
2018-07-25T01:02:24.960Z,0.00
2018-07-25T01:03:24.925Z,0.00
2018-07-25T01:04:24.941Z,0.00
2018-07-25T01:05:24.861Z,0.00
2018-07-25T01:06:24.815Z,0.00
2018-07-25T01:07:24.781Z,0.00
2018-07-25T01:08:24.746Z,0.00
2018-07-25T01:09:24.739Z,0.00
2018-07-25T01:10:24.677Z,0.00
2018-07-25T01:11:24.660Z,0.00
2018-07-25T01:12:24.615Z,0.00
2018-07-25T01:13:24.596Z,0.00
2018-07-25T01:14:24.539Z,0.00
2018-07-25T01:15:24.524Z,0.00
2018-07-25T01:16:24.500Z,0.00
2018-07-25T01:17:24.440Z,0.00
2018-07-25T01:18:24.406Z,0.00
2018-07-25T01:19:24.384Z,0.00
2018-07-25T01:20:24.343Z,0.00
2018-07-25T01:21:24.313Z,0.00
2018-07-25T01:22:24.273Z,0.00
2018-07-25T01:23:24.249Z,0.00
2018-07-25T01:24:24.204Z,0.00
2018-07-25T01:25:24.176Z,0.00
2018-07-25T01:26:24.205Z,0.00
2018-07-25T01:27:24.096Z,0.00
2018-07-25T01:28:24.059Z,0.00
2018-07-25T01:29:24.023Z,0.00
2018-07-25T01:30:23.994Z,0.00
2018-07-25T01:31:23.971Z,0.00
2018-07-25T01:32:23.935Z,0.00
2018-07-25T01:33:23.894Z,0.00
2018-07-25T01:34:23.849Z,0.00
2018-07-25T01:35:23.835Z,0.00
2018-07-25T01:36:23.799Z,0.00
2018-07-25T01:37:23.793Z,0.00
2018-07-25T01:38:23.722Z,0.00
2018-07-25T01:39:23.708Z,0.00
2018-07-25T01:40:23.661Z,0.00
2018-07-25T01:41:23.612Z,0.00
2018-07-25T01:42:23.595Z,0.00
2018-07-25T01:43:23.555Z,0.00
2018-07-25T01:44:23.526Z,0.00
2018-07-25T01:45:23.493Z,0.00
2018-07-25T01:46:23.460Z,0.00
2018-07-25T01:47:23.422Z,0.00
2018-07-25T01:48:23.375Z,0.00
2018-07-25T01:49:23.348Z,0.00
2018-07-25T01:50:23.318Z,0.00
2018-07-25T01:51:23.283Z,0.00
2018-07-25T01:52:23.272Z,0.00
2018-07-25T01:53:23.258Z,0.00
2018-07-25T01:54:23.167Z,0.00
2018-07-25T01:55:23.144Z,0.00
2018-07-25T01:56:23.162Z,0.00
2018-07-25T01:57:23.071Z,0.00
2018-07-25T01:58:23.071Z,0.00
2018-07-25T01:59:23.002Z,0.00
2018-07-25T02:00:23.007Z,0.00
2018-07-25T02:01:22.982Z,0.00
2018-07-25T02:02:22.894Z,0.00
2018-07-25T02:03:22.867Z,0.00
2018-07-25T02:04:22.835Z,0.00
2018-07-25T02:05:22.805Z,0.00
2018-07-25T02:06:22.771Z,0.00
2018-07-25T02:07:22.742Z,0.00
2018-07-25T02:08:22.725Z,0.00
2018-07-25T02:09:22.659Z,0.00
2018-07-25T02:10:22.613Z,0.00
2018-07-25T02:11:22.600Z,0.00
2018-07-25T02:12:22.548Z,0.00
2018-07-25T02:13:22.519Z,0.00
2018-07-25T02:14:22.484Z,0.00
2018-07-25T02:15:22.446Z,0.00
2018-07-25T02:16:22.418Z,0.00
2018-07-25T02:17:22.378Z,0.00
2018-07-25T02:18:22.346Z,0.00
2018-07-25T02:19:22.343Z,0.00
2018-07-25T02:20:22.278Z,0.00
2018-07-25T02:21:22.240Z,0.00
2018-07-25T02:22:22.206Z,0.00
2018-07-25T02:23:22.173Z,0.00
2018-07-25T02:24:22.145Z,0.00
2018-07-25T02:25:22.106Z,0.00
2018-07-25T02:26:22.087Z,0.00
2018-07-25T02:27:22.032Z,0.00
2018-07-25T02:28:22.026Z,0.00
2018-07-25T02:29:21.976Z,0.00
2018-07-25T02:30:21.920Z,0.00
2018-07-25T02:31:21.893Z,0.00
2018-07-25T02:32:21.865Z,0.00
2018-07-25T02:33:21.815Z,0.00
2018-07-25T02:34:21.786Z,0.00
2018-07-25T02:35:21.755Z,0.00
2018-07-25T02:36:21.733Z,0.00
2018-07-25T02:37:21.704Z,0.00
2018-07-25T02:38:21.657Z,0.00
2018-07-25T02:39:21.623Z,0.00
2018-07-25T02:40:21.585Z,0.00
2018-07-25T02:41:21.559Z,0.00
2018-07-25T02:42:21.533Z,0.00
2018-07-25T02:43:21.506Z,4.00
2018-07-25T02:44:21.443Z,4.00
2018-07-25T02:45:21.412Z,4.00
2018-07-25T02:46:21.370Z,0.00
2018-07-25T02:47:21.342Z,4.00
2018-07-25T02:48:21.302Z,4.00
2018-07-25T02:49:21.270Z,4.00
2018-07-25T02:50:21.235Z,4.00
2018-07-25T02:51:21.207Z,8.00
2018-07-25T02:52:21.167Z,8.00
2018-07-25T02:53:21.132Z,8.00
2018-07-25T02:54:21.098Z,12.00
2018-07-25T02:55:21.056Z,12.00
2018-07-25T02:56:21.017Z,16.00
2018-07-25T02:57:20.987Z,12.00
2018-07-25T02:58:20.964Z,16.00
2018-07-25T02:59:20.925Z,16.00
2018-07-25T03:00:20.911Z,20.00
2018-07-25T03:01:20.877Z,24.00
2018-07-25T03:02:20.968Z,28.00
2018-07-25T03:03:20.857Z,32.00
2018-07-25T03:04:20.790Z,40.00
2018-07-25T03:05:20.714Z,48.00
2018-07-25T03:06:20.715Z,52.00
2018-07-25T03:07:20.655Z,60.00
2018-07-25T03:08:20.616Z,68.00
2018-07-25T03:09:20.582Z,80.00
2018-07-25T03:10:20.538Z,88.00
2018-07-25T03:11:20.500Z,100.00
2018-07-25T03:12:20.483Z,112.00
2018-07-25T03:13:20.423Z,128.00
2018-07-25T03:14:20.393Z,148.00
2018-07-25T03:15:20.352Z,164.00
2018-07-25T03:16:20.335Z,184.00
2018-07-25T03:17:20.306Z,204.00
2018-07-25T03:18:20.260Z,228.00
2018-07-25T03:19:20.266Z,256.00
2018-07-25T03:20:20.186Z,280.00
2018-07-25T03:21:20.163Z,308.00
2018-07-25T03:22:20.127Z,340.00
2018-07-25T03:23:20.093Z,376.00
2018-07-25T03:24:20.044Z,408.00
2018-07-25T03:25:20.007Z,448.00
2018-07-25T03:26:19.984Z,488.00
2018-07-25T03:27:19.948Z,528.00
2018-07-25T03:28:19.908Z,568.00
2018-07-25T03:29:19.870Z,616.00
2018-07-25T03:30:19.833Z,664.00
2018-07-25T03:31:19.852Z,712.00
2018-07-25T03:32:19.762Z,764.00
2018-07-25T03:33:19.741Z,816.00
2018-07-25T03:34:19.702Z,876.00
2018-07-25T03:35:19.654Z,932.00
2018-07-25T03:36:19.726Z,992.00
2018-07-25T03:37:19.610Z,1060.00
2018-07-25T03:38:19.559Z,1124.00
2018-07-25T03:39:19.558Z,1192.00
2018-07-25T03:40:19.478Z,1264.00
2018-07-25T03:41:19.488Z,1340.00
2018-07-25T03:42:19.413Z,1408.00
2018-07-25T03:43:19.386Z,1480.00
2018-07-25T03:44:19.364Z,1556.00
2018-07-25T03:45:19.324Z,1632.00
2018-07-25T03:46:19.325Z,1716.00
2018-07-25T03:47:19.274Z,1796.00
2018-07-25T03:48:19.201Z,1872.00
2018-07-25T03:49:19.172Z,1956.00
2018-07-25T03:50:19.132Z,2040.00
2018-07-25T03:51:19.109Z,2128.00
2018-07-25T03:52:19.165Z,2212.00
2018-07-25T03:53:19.046Z,2292.00
2018-07-25T03:54:18.990Z,2376.00
2018-07-25T03:55:18.943Z,2468.00
2018-07-25T03:56:18.919Z,2556.00
2018-07-25T03:57:18.892Z,2648.00
2018-07-25T03:58:18.862Z,2740.00
2018-07-25T03:59:18.843Z,2828.00
2018-07-25T04:00:18.788Z,2912.00
2018-07-25T04:01:18.738Z,3000.00
2018-07-25T04:02:18.729Z,3088.00
2018-07-25T04:03:18.694Z,3176.00
2018-07-25T04:04:18.644Z,3264.00
2018-07-25T04:05:18.619Z,3352.00
2018-07-25T04:06:18.561Z,3436.00
2018-07-25T04:07:18.532Z,3528.00
2018-07-25T04:08:18.512Z,3620.00
2018-07-25T04:09:18.490Z,3704.00
2018-07-25T04:10:18.467Z,3792.00
2018-07-25T04:11:18.417Z,3888.00
2018-07-25T04:12:18.366Z,3988.00
2018-07-25T04:13:18.336Z,4124.00
2018-07-25T04:14:18.304Z,4180.00
2018-07-25T04:15:18.276Z,4280.00
2018-07-25T04:16:18.233Z,4604.00
2018-07-25T04:17:18.185Z,4836.00
2018-07-25T04:18:18.142Z,4668.00
2018-07-25T04:19:18.147Z,4736.00
2018-07-25T04:20:18.093Z,4996.00
2018-07-25T04:21:18.044Z,5044.00
2018-07-25T04:22:18.020Z,4984.00
2018-07-25T04:23:17.987Z,5012.00
2018-07-25T04:24:17.940Z,5028.00
2018-07-25T04:25:17.905Z,5220.00
2018-07-25T04:26:17.898Z,5288.00
2018-07-25T04:27:17.846Z,5440.00
2018-07-25T04:28:17.807Z,5308.00
2018-07-25T04:29:17.784Z,5360.00
2018-07-25T04:30:17.750Z,5424.00
2018-07-25T04:31:17.726Z,5496.00
2018-07-25T04:32:17.692Z,5520.00
2018-07-25T04:33:17.627Z,5576.00
2018-07-25T04:34:17.627Z,5632.00
2018-07-25T04:35:17.581Z,5708.00
2018-07-25T04:36:17.516Z,5776.00
2018-07-25T04:37:17.490Z,5832.00
2018-07-25T04:38:17.468Z,5888.00
2018-07-25T04:39:17.448Z,5964.00
2018-07-25T04:40:17.453Z,6048.00
2018-07-25T04:41:17.394Z,6252.00
2018-07-25T04:42:17.407Z,6372.00
2018-07-25T04:43:17.293Z,6320.00
2018-07-25T04:44:17.255Z,6356.00
2018-07-25T04:45:17.213Z,6572.00
2018-07-25T04:46:17.281Z,7844.00
2018-07-25T04:47:17.157Z,9780.00
2018-07-25T04:48:17.129Z,11168.00
2018-07-25T04:49:17.081Z,10548.00
2018-07-25T04:50:17.035Z,9052.00
2018-07-25T04:51:17.051Z,7524.00
2018-07-25T04:52:16.996Z,9264.00
2018-07-25T04:53:16.984Z,11412.00
2018-07-25T04:54:16.895Z,12296.00
2018-07-25T04:55:16.895Z,10844.00
2018-07-25T04:56:16.840Z,10500.00
2018-07-25T04:57:16.814Z,10876.00
2018-07-25T04:58:16.777Z,9068.00
2018-07-25T04:59:16.756Z,7284.00
2018-07-25T05:00:16.705Z,7628.00
2018-07-25T05:01:16.683Z,11780.00
2018-07-25T05:02:16.634Z,14076.00
2018-07-25T05:03:16.633Z,13528.00
2018-07-25T05:04:16.577Z,10928.00
2018-07-25T05:05:16.552Z,11508.00
2018-07-25T05:06:16.508Z,17280.00
2018-07-25T05:07:16.574Z,17632.00
2018-07-25T05:08:16.448Z,16896.00
2018-07-25T05:09:16.395Z,16800.00
2018-07-25T05:10:16.383Z,15072.00
2018-07-25T05:11:16.352Z,16004.00
2018-07-25T05:12:16.304Z,22432.00
2018-07-25T05:13:16.275Z,23744.00
2018-07-25T05:14:16.263Z,23520.00
2018-07-25T05:15:16.246Z,24576.00
2018-07-25T05:16:16.256Z,25600.00
2018-07-25T05:17:16.182Z,26048.00
2018-07-25T05:18:16.119Z,26912.00
2018-07-25T05:19:16.097Z,26880.00
2018-07-25T05:20:16.057Z,26752.00
2018-07-25T05:21:16.051Z,27200.00
2018-07-25T05:22:16.013Z,27936.00
2018-07-25T05:23:16.001Z,27232.00
2018-07-25T05:24:15.956Z,26528.00
2018-07-25T05:25:15.908Z,25792.00
2018-07-25T05:26:15.896Z,26176.00
2018-07-25T05:27:15.889Z,26880.00
2018-07-25T05:28:15.850Z,29024.00
2018-07-25T05:29:15.827Z,29824.00
2018-07-25T05:30:15.868Z,30368.00
2018-07-25T05:31:15.845Z,31968.00
2018-07-25T05:32:15.721Z,32640.00
2018-07-25T05:33:15.723Z,31136.00
2018-07-25T05:34:15.696Z,28160.00
2018-07-25T05:35:15.623Z,22336.00
2018-07-25T05:36:15.587Z,16772.00
2018-07-25T05:37:15.573Z,11976.00
2018-07-25T05:38:15.590Z,9824.00
2018-07-25T05:39:15.506Z,9544.00
2018-07-25T05:40:15.474Z,8892.00
2018-07-25T05:41:15.467Z,10436.00
2018-07-25T05:42:15.429Z,12856.00
2018-07-25T05:43:15.441Z,14108.00
2018-07-25T05:44:15.380Z,13484.00
2018-07-25T05:45:15.353Z,13568.00
2018-07-25T05:46:15.323Z,12896.00
2018-07-25T05:47:15.295Z,9396.00
2018-07-25T05:48:15.272Z,9364.00
2018-07-25T05:49:15.281Z,11040.00
2018-07-25T05:50:15.209Z,11140.00
2018-07-25T05:51:15.196Z,11428.00
2018-07-25T05:52:15.211Z,11392.00
2018-07-25T05:53:15.176Z,10880.00
2018-07-25T05:54:15.115Z,10432.00
2018-07-25T05:55:15.089Z,9696.00
2018-07-25T05:56:15.067Z,9192.00
2018-07-25T05:57:15.025Z,9144.00
2018-07-25T05:58:15.000Z,9148.00
2018-07-25T05:59:14.967Z,9008.00
2018-07-25T06:00:14.949Z,9384.00
2018-07-25T06:01:14.923Z,10652.00
2018-07-25T06:02:14.889Z,9532.00
2018-07-25T06:03:14.946Z,9140.00
2018-07-25T06:04:14.840Z,8996.00
2018-07-25T06:05:14.801Z,8960.00
2018-07-25T06:06:14.867Z,9004.00
2018-07-25T06:07:14.757Z,9068.00
2018-07-25T06:08:14.717Z,9476.00
2018-07-25T06:09:14.689Z,9420.00
2018-07-25T06:10:14.658Z,9048.00
2018-07-25T06:11:14.628Z,9092.00
2018-07-25T06:12:14.601Z,9524.00
2018-07-25T06:13:14.574Z,11044.00
2018-07-25T06:14:14.616Z,11188.00
2018-07-25T06:15:14.527Z,9480.00
2018-07-25T06:16:14.479Z,9320.00
2018-07-25T06:17:14.452Z,9384.00
2018-07-25T06:18:14.426Z,9784.00
2018-07-25T06:19:14.412Z,12672.00
2018-07-25T06:20:14.384Z,12552.00
2018-07-25T06:21:14.346Z,11032.00
2018-07-25T06:22:14.301Z,12124.00
2018-07-25T06:23:14.276Z,13328.00
2018-07-25T06:24:14.255Z,13228.00
2018-07-25T06:25:14.224Z,12716.00
2018-07-25T06:26:14.190Z,15252.00
2018-07-25T06:27:14.168Z,23488.00
2018-07-25T06:28:14.133Z,21728.00
2018-07-25T06:29:14.101Z,13536.00
2018-07-25T06:30:14.093Z,9960.00
2018-07-25T06:31:14.090Z,9676.00
2018-07-25T06:32:14.027Z,9748.00
2018-07-25T06:33:13.988Z,10116.00
2018-07-25T06:34:13.972Z,10760.00
2018-07-25T06:35:13.931Z,12552.00
2018-07-25T06:36:13.896Z,13956.00
2018-07-25T06:37:13.897Z,14736.00
2018-07-25T06:38:13.844Z,15700.00
2018-07-25T06:39:13.820Z,13852.00
2018-07-25T06:40:13.792Z,11628.00
2018-07-25T06:41:13.758Z,10304.00
2018-07-25T06:42:13.823Z,10116.00
2018-07-25T06:43:13.731Z,9912.00
2018-07-25T06:44:13.665Z,9960.00
2018-07-25T06:45:13.649Z,9944.00
2018-07-25T06:46:13.613Z,9956.00
2018-07-25T06:47:13.613Z,9964.00
2018-07-25T06:48:13.554Z,10020.00
2018-07-25T06:49:13.532Z,10300.00
2018-07-25T06:50:13.501Z,10828.00
2018-07-25T06:51:13.468Z,11576.00
2018-07-25T06:52:13.436Z,11560.00
2018-07-25T06:53:13.407Z,11784.00
2018-07-25T06:54:13.382Z,11672.00
2018-07-25T06:55:13.352Z,11136.00
2018-07-25T06:56:13.322Z,11328.00
2018-07-25T06:57:13.371Z,12000.00
2018-07-25T06:58:13.281Z,13472.00
2018-07-25T06:59:13.235Z,24288.00
2018-07-25T07:00:13.221Z,47520.00
2018-07-25T07:01:13.183Z,65280.00
2018-07-25T07:02:13.147Z,69088.00
2018-07-25T07:03:13.123Z,71488.00
2018-07-25T07:04:13.115Z,72960.00
2018-07-25T07:05:13.133Z,71424.00
2018-07-25T07:06:13.040Z,67872.00
2018-07-25T07:07:13.024Z,64896.00
2018-07-25T07:08:13.003Z,65344.00
2018-07-25T07:09:12.977Z,68128.00
2018-07-25T07:10:12.964Z,74880.00
2018-07-25T07:11:12.933Z,76256.00
2018-07-25T07:12:12.957Z,74784.00
2018-07-25T07:13:12.861Z,72896.00
2018-07-25T07:14:12.852Z,69344.00
2018-07-25T07:15:12.818Z,71008.00
2018-07-25T07:16:12.807Z,72512.00
2018-07-25T07:17:12.791Z,69952.00
2018-07-25T07:18:12.763Z,68352.00
2018-07-25T07:19:12.760Z,70432.00
2018-07-25T07:20:12.715Z,73856.00
2018-07-25T07:21:12.672Z,74112.00
2018-07-25T07:22:12.853Z,73696.00
2018-07-25T07:23:12.665Z,74048.00
2018-07-25T07:24:12.636Z,74976.00
2018-07-25T07:25:12.600Z,75712.00
2018-07-25T07:26:12.582Z,79712.00
2018-07-25T07:27:12.565Z,83008.00
2018-07-25T07:28:12.542Z,83648.00
2018-07-25T07:29:12.523Z,81440.00
2018-07-25T07:30:12.496Z,81568.00
2018-07-25T07:31:12.485Z,83360.00
2018-07-25T07:32:12.450Z,81920.00
2018-07-25T07:33:12.449Z,77952.00
2018-07-25T07:34:12.429Z,76576.00
2018-07-25T07:35:12.453Z,77696.00
2018-07-25T07:36:12.400Z,76960.00
2018-07-25T07:37:12.378Z,80160.00
2018-07-25T07:38:12.355Z,86368.00
2018-07-25T07:39:12.329Z,89632.00
2018-07-25T07:40:12.299Z,86080.00
2018-07-25T07:41:12.301Z,82464.00
2018-07-25T07:42:12.289Z,82304.00
2018-07-25T07:43:12.270Z,86208.00
2018-07-25T07:44:12.289Z,91200.00
2018-07-25T07:45:12.238Z,84064.00
2018-07-25T07:46:12.203Z,80288.00
2018-07-25T07:47:12.217Z,85984.00
2018-07-25T07:48:12.203Z,93632.00
2018-07-25T07:49:12.175Z,91488.00
2018-07-25T07:50:12.138Z,88128.00
2018-07-25T07:51:12.120Z,83776.00
2018-07-25T07:52:12.119Z,78816.00
2018-07-25T07:53:12.092Z,84480.00
2018-07-25T07:54:12.083Z,83296.00
2018-07-25T07:55:12.061Z,85056.00
2018-07-25T07:56:12.046Z,84192.00
2018-07-25T07:57:12.039Z,81184.00
2018-07-25T07:58:12.017Z,82720.00
2018-07-25T07:59:12.012Z,90144.00
2018-07-25T08:00:11.996Z,90336.00
2018-07-25T08:01:11.967Z,91552.00
2018-07-25T08:02:11.946Z,91104.00
2018-07-25T08:03:11.945Z,86880.00
2018-07-25T08:04:11.937Z,82016.00
2018-07-25T08:05:11.910Z,80192.00
2018-07-25T08:06:11.914Z,81152.00
2018-07-25T08:07:11.883Z,82048.00
2018-07-25T08:08:11.863Z,82496.00
2018-07-25T08:09:11.851Z,87296.00
2018-07-25T08:10:11.866Z,93280.00
2018-07-25T08:11:11.832Z,92320.00
2018-07-25T08:12:11.804Z,93248.00
2018-07-25T08:13:11.797Z,91392.00
2018-07-25T08:14:11.792Z,90144.00
2018-07-25T08:15:11.778Z,91872.00
2018-07-25T08:16:11.749Z,97088.00
2018-07-25T08:17:11.743Z,96096.00
2018-07-25T08:18:11.754Z,91360.00
2018-07-25T08:19:11.722Z,88544.00
2018-07-25T08:20:11.715Z,81056.00
2018-07-25T08:21:11.761Z,77568.00
2018-07-25T08:22:11.708Z,80384.00
2018-07-25T08:23:11.661Z,82784.00
2018-07-25T08:24:11.679Z,80160.00
2018-07-25T08:25:11.630Z,80992.00
2018-07-25T08:26:11.648Z,90528.00
2018-07-25T08:27:11.602Z,96480.00
2018-07-25T08:28:11.607Z,98176.00
2018-07-25T08:29:11.579Z,90304.00
2018-07-25T08:30:11.557Z,78496.00
2018-07-25T08:31:11.578Z,77152.00
2018-07-25T08:32:11.527Z,85472.00
2018-07-25T08:33:11.517Z,91360.00
2018-07-25T08:34:11.499Z,90208.00
2018-07-25T08:35:11.507Z,90304.00
2018-07-25T08:36:11.473Z,96608.00
2018-07-25T08:37:11.452Z,88864.00
2018-07-25T08:38:11.433Z,84224.00
2018-07-25T08:39:11.427Z,89760.00
2018-07-25T08:40:11.415Z,94368.00
2018-07-25T08:41:11.409Z,100960.00
2018-07-25T08:42:11.383Z,111136.00
2018-07-25T08:43:11.376Z,112672.00
2018-07-25T08:44:11.362Z,103680.00
2018-07-25T08:45:11.342Z,94592.00
2018-07-25T08:46:11.320Z,91008.00
2018-07-25T08:47:11.310Z,106592.00
2018-07-25T08:48:11.309Z,106752.00
2018-07-25T08:49:11.275Z,108032.00
2018-07-25T08:50:11.275Z,109408.00
2018-07-25T08:51:11.248Z,104064.00
2018-07-25T08:52:11.256Z,102880.00
2018-07-25T08:53:11.216Z,104992.00
2018-07-25T08:54:11.232Z,100288.00
2018-07-25T08:55:11.196Z,92064.00
2018-07-25T08:56:11.192Z,96544.00
2018-07-25T08:57:11.171Z,101056.00
2018-07-25T08:58:11.150Z,96480.00
2018-07-25T08:59:11.152Z,56224.00
2018-07-25T09:00:11.129Z,107200.00
2018-07-25T09:01:11.124Z,106688.00
2018-07-25T09:02:11.128Z,104288.00
2018-07-25T09:03:11.065Z,102336.00
2018-07-25T09:04:11.072Z,104128.00
2018-07-25T09:05:11.045Z,107296.00
2018-07-25T09:06:11.053Z,103232.00
2018-07-25T09:07:11.028Z,102080.00
2018-07-25T09:08:11.028Z,98976.00
2018-07-25T09:09:11.055Z,95104.00
2018-07-25T09:10:11.015Z,101472.00
2018-07-25T09:11:10.977Z,113472.00
2018-07-25T09:12:10.947Z,118592.00
2018-07-25T09:13:11.013Z,119072.00
2018-07-25T09:14:10.928Z,118752.00
2018-07-25T09:15:10.925Z,117696.00
2018-07-25T09:16:10.896Z,117504.00
2018-07-25T09:17:10.874Z,121760.00
2018-07-25T09:18:10.884Z,120768.00
2018-07-25T09:19:10.856Z,121472.00
2018-07-25T09:20:10.851Z,132224.00
2018-07-25T09:21:10.838Z,127520.00
2018-07-25T09:22:10.823Z,115808.00
2018-07-25T09:23:10.789Z,110464.00
2018-07-25T09:24:10.785Z,103456.00
2018-07-25T09:25:10.815Z,27776.00
2018-07-25T09:26:10.748Z,27648.00
2018-07-25T09:27:10.732Z,30272.00
2018-07-25T09:28:10.724Z,124768.00
2018-07-25T09:29:10.713Z,49760.00
2018-07-25T09:30:10.697Z,114496.00
2018-07-25T09:31:10.730Z,38848.00
2018-07-25T09:32:10.686Z,107872.00
2018-07-25T09:33:10.651Z,42016.00
2018-07-25T09:34:11.482Z,102560.00
2018-07-25T09:35:10.626Z,100160.00
2018-07-25T09:36:10.630Z,104256.00
2018-07-25T09:37:10.610Z,109824.00
2018-07-25T09:38:11.446Z,106656.00
2018-07-25T09:39:10.570Z,108832.00
2018-07-25T09:40:10.560Z,114304.00
2018-07-25T09:41:10.545Z,120064.00
2018-07-25T09:42:10.526Z,110080.00
2018-07-25T09:43:10.509Z,22624.00
2018-07-25T09:44:10.502Z,23424.00
2018-07-25T09:45:10.489Z,24800.00
2018-07-25T09:46:10.460Z,22816.00
2018-07-25T09:47:10.470Z,23872.00
2018-07-25T09:48:10.434Z,22624.00
2018-07-25T09:49:10.424Z,21504.00
2018-07-25T09:50:10.413Z,24800.00
2018-07-25T09:51:10.397Z,106464.00
2018-07-25T09:52:10.387Z,101984.00
2018-07-25T09:53:10.515Z,108992.00
2018-07-25T09:54:10.368Z,21760.00
2018-07-25T09:55:10.340Z,128864.00
2018-07-25T09:56:10.393Z,131552.00
2018-07-25T09:57:10.290Z,127904.00
2018-07-25T09:58:10.275Z,117920.00
2018-07-25T09:59:10.278Z,91968.00
2018-07-25T10:00:10.270Z,114944.00
2018-07-25T10:01:10.350Z,111008.00
2018-07-25T10:02:10.258Z,113280.00
2018-07-25T10:03:10.208Z,107552.00
2018-07-25T10:04:10.192Z,115040.00
2018-07-25T10:05:10.166Z,114208.00
2018-07-25T10:06:10.179Z,114432.00
2018-07-25T10:07:10.161Z,114688.00
2018-07-25T10:08:10.115Z,116672.00
2018-07-25T10:09:10.088Z,118560.00
2018-07-25T10:10:10.083Z,126176.00
2018-07-25T10:11:10.051Z,133504.00
2018-07-25T10:12:10.026Z,100992.00
2018-07-25T10:13:10.035Z,109056.00
2018-07-25T10:14:10.000Z,120608.00
2018-07-25T10:15:10.070Z,31328.00
2018-07-25T10:16:09.955Z,29568.00
2018-07-25T10:17:10.037Z,68352.00
2018-07-25T10:18:09.983Z,110816.00
2018-07-25T10:19:09.955Z,87072.00
2018-07-25T10:20:10.011Z,141696.00
2018-07-25T10:21:10.018Z,146752.00
2018-07-25T10:22:09.858Z,129184.00
2018-07-25T10:23:09.902Z,123744.00
2018-07-25T10:24:09.843Z,119904.00
2018-07-25T10:25:09.823Z,119776.00
2018-07-25T10:26:09.829Z,109376.00
2018-07-25T10:27:09.816Z,113760.00
2018-07-25T10:28:09.811Z,125120.00
2018-07-25T10:29:09.774Z,121760.00
2018-07-25T10:30:09.747Z,115680.00
2018-07-25T10:31:09.717Z,112672.00
2018-07-25T10:32:09.697Z,115872.00
2018-07-25T10:33:09.685Z,121856.00
2018-07-25T10:34:09.687Z,61184.00
2018-07-25T10:35:09.658Z,128128.00
2018-07-25T10:36:09.676Z,117664.00
2018-07-25T10:37:09.629Z,111744.00
2018-07-25T10:38:09.610Z,114176.00
2018-07-25T10:39:09.604Z,123680.00
2018-07-25T10:40:09.570Z,67648.00
2018-07-25T10:41:09.552Z,109344.00
2018-07-25T10:42:09.534Z,115616.00
2018-07-25T10:43:09.510Z,50528.00
2018-07-25T10:44:09.494Z,120096.00
2018-07-25T10:45:09.502Z,125792.00
2018-07-25T10:46:09.468Z,111200.00
2018-07-25T10:47:09.445Z,34656.00
2018-07-25T10:48:09.431Z,56896.00
2018-07-25T10:49:09.417Z,116896.00
2018-07-25T10:50:09.411Z,73184.00
2018-07-25T10:51:09.404Z,116576.00
2018-07-25T10:52:09.379Z,31136.00
2018-07-25T10:53:09.404Z,33696.00
2018-07-25T10:54:09.322Z,130048.00
2018-07-25T10:55:09.339Z,125216.00
2018-07-25T10:56:09.321Z,127520.00
2018-07-25T10:57:09.330Z,33600.00
2018-07-25T10:58:09.248Z,34400.00
2018-07-25T10:59:09.246Z,85024.00
2018-07-25T11:00:09.237Z,50464.00
2018-07-25T11:01:09.215Z,80000.00
2018-07-25T11:02:09.268Z,153216.00
2018-07-25T11:03:09.166Z,146752.00
2018-07-25T11:04:09.161Z,120448.00
2018-07-25T11:05:09.145Z,117984.00
2018-07-25T11:06:09.132Z,35296.00
2018-07-25T11:07:09.113Z,136640.00
2018-07-25T11:08:09.094Z,140256.00
2018-07-25T11:09:09.085Z,29888.00
2018-07-25T11:10:09.054Z,28576.00
2018-07-25T11:11:09.039Z,30592.00
2018-07-25T11:12:09.028Z,115456.00
2018-07-25T11:13:09.013Z,114592.00
2018-07-25T11:14:08.986Z,125920.00
2018-07-25T11:15:08.982Z,33120.00
2018-07-25T11:16:08.951Z,36736.00
2018-07-25T11:17:08.937Z,95232.00
2018-07-25T11:18:08.921Z,27968.00
2018-07-25T11:19:08.906Z,27264.00
2018-07-25T11:20:08.889Z,28416.00
2018-07-25T11:21:08.878Z,30400.00
2018-07-25T11:22:08.855Z,33696.00
2018-07-25T11:23:08.868Z,100672.00
2018-07-25T11:24:08.830Z,30880.00
2018-07-25T11:25:08.790Z,30240.00
2018-07-25T11:26:08.776Z,29120.00
2018-07-25T11:27:08.819Z,30688.00
2018-07-25T11:28:08.758Z,31424.00
2018-07-25T11:29:08.735Z,136000.00
2018-07-25T11:30:08.699Z,140896.00
2018-07-25T11:31:08.688Z,142208.00
2018-07-25T11:32:08.683Z,150624.00
2018-07-25T11:33:08.654Z,159840.00
2018-07-25T11:34:08.653Z,138720.00
2018-07-25T11:35:08.628Z,133760.00
2018-07-25T11:36:08.601Z,133696.00
2018-07-25T11:37:08.587Z,83904.00
2018-07-25T11:38:08.574Z,129216.00
2018-07-25T11:39:08.544Z,129664.00
2018-07-25T11:40:08.525Z,51744.00
2018-07-25T11:41:08.520Z,33440.00
2018-07-25T11:42:08.493Z,33664.00
2018-07-25T11:43:08.464Z,140480.00
2018-07-25T11:44:08.480Z,140320.00
2018-07-25T11:45:08.445Z,136032.00
2018-07-25T11:46:08.421Z,29088.00
2018-07-25T11:47:08.402Z,27552.00
2018-07-25T11:48:08.397Z,26752.00
2018-07-25T11:49:08.386Z,27296.00
2018-07-25T11:50:08.364Z,28512.00
2018-07-25T11:51:08.337Z,27904.00
2018-07-25T11:52:08.324Z,28832.00
2018-07-25T11:53:08.295Z,25984.00
2018-07-25T11:54:08.281Z,26080.00
2018-07-25T11:55:08.267Z,25248.00
2018-07-25T11:56:08.247Z,24800.00
2018-07-25T11:57:08.227Z,25280.00
2018-07-25T11:58:08.204Z,26496.00
2018-07-25T11:59:08.189Z,28608.00
2018-07-25T12:00:08.169Z,27104.00
2018-07-25T12:01:08.161Z,26048.00
2018-07-25T12:02:08.162Z,26944.00
2018-07-25T12:03:08.115Z,29632.00
2018-07-25T12:04:08.089Z,32768.00
2018-07-25T12:05:08.071Z,34464.00
2018-07-25T12:06:08.054Z,85248.00
2018-07-25T12:07:08.031Z,84640.00